PDT,Max TemperatureF,Mean TemperatureF,Min TemperatureF,Max Dew PointF,MeanDew PointF,Min DewpointF,Max Humidity, Mean Humidity, Min Humidity, Max Sea Level PressureIn, Mean Sea Level PressureIn, Min Sea Level PressureIn, Max VisibilityMiles, Mean VisibilityMiles, Min VisibilityMiles, Max Wind SpeedMPH, Mean Wind SpeedMPH, Max Gust SpeedMPH,PrecipitationIn, CloudCover, Events, WindDirDegrees
2013-3-1,49,44,39,46,42,39,100,96,83,30.39,30.32,30.28,10,7,0,20,9,26,0.01,7,Fog-Rain,188
2013-3-2,52,46,39,43,40,37,100,85,69,30.30,30.10,29.89,10,10,10,18,8,25,0.00,4,Rain,171
2013-3-3,43,36,29,32,24,19,76,65,39,30.18,29.99,29.87,10,10,10,23,17,28,0.00,4,Snow,263
2013-3-4,42,34,26,26,21,19,85,58,39,30.30,30.18,30.03,10,10,10,13,7,,0.00,3,,74
2013-3-5,39,34,28,30,24,19,88,68,51,30.08,29.94,29.85,10,10,10,15,12,,0.00,6,Rain-Snow,9
2013-3-6,44,38,32,39,34,27,100,91,74,29.85,29.67,29.55,10,8,1,18,10,22,0.13,8,Rain-Snow-Thunderstorm,168
2013-3-7,45,36,28,36,32,28,100,95,61,30.11,29.96,29.80,10,6,0,17,10,,0.09,5,Fog-Rain-Snow,173
2013-3-8,39,32,26,37,31,27,100,98,81,30.17,30.04,30.00,10,4,0,10,5,,0.00,5,Fog,18
2013-3-9,50,39,28,32,30,25,100,80,39,30.43,30.28,30.14,10,10,5,12,3,,0.00,0,,221
2013-3-10,42,35,28,36,31,27,100,81,64,30.42,30.31,30.19,10,10,10,13,7,,0.01,4,Rain,175
2013-3-11,48,38,28,34,29,21,100,89,35,30.37,30.27,30.19,10,5,0,10,5,,0.00,3,Fog,200
2013-3-12,54,45,37,45,40,28,94,80,65,30.23,30.08,30.02,10,10,10,24,10,31,0.00,7,Rain,180
2013-3-13,54,48,42,43,41,37,89,79,62,30.19,30.12,30.05,10,10,10,14,10,,0.00,5,Rain,179
2013-3-14,59,50,42,45,41,34,87,74,53,30.13,30.06,29.99,10,10,10,17,6,24,0.00,6,,147
2013-3-15,56,46,37,43,38,34,100,76,46,30.16,30.10,30.03,10,10,10,17,11,21,0.00,3,Rain,204
2013-3-16,50,42,34,39,35,27,93,78,57,30.05,29.83,29.66,10,10,5,26,13,38,0.02,6,Rain-Snow,209
2013-3-17,45,36,28,25,22,18,85,60,36,30.04,29.91,29.70,10,10,6,30,19,37,0.00,3,Rain-Snow,235
2013-3-18,45,34,24,32,24,14,93,71,31,30.21,30.01,29.93,10,9,1,28,13,41,0.01,3,Rain-Snow,232
2013-3-19,47,34,21,30,23,16,93,68,29,30.30,30.11,29.80,10,10,10,17,6,22,0.00,3,Rain,66
2013-3-20,50,42,33,46,39,28,100,86,55,29.80,29.61,29.49,10,10,4,31,14,43,0.28,7,Rain-Snow-Thunderstorm,169
2013-3-21,42,34,26,30,22,19,93,65,42,30.04,29.94,29.77,10,10,10,26,17,36,0.00,4,Rain-Snow,227
2013-3-22,39,30,22,25,21,16,100,71,41,30.27,30.09,29.96,10,10,9,17,5,25,0.00,4,Snow,217
2013-3-23,41,31,21,25,22,16,100,74,36,30.33,30.26,30.23,10,10,10,10,5,,0.00,0,,150
2013-3-24,43,32,21,27,19,12,93,56,32,30.39,30.27,30.15,10,10,10,9,4,,0.00,0,,65
2013-3-25,49,35,22,29,23,16,79,59,42,30.21,30.13,30.02,10,10,10,10,7,,0.00,1,,41
2013-3-26,56,42,29,31,27,21,77,58,40,30.04,30.00,29.97,10,10,10,8,5,,0.00,1,,359
2013-3-27,54,44,35,41,35,29,86,72,58,29.99,29.96,29.92,10,10,10,10,5,,0.00,7,,70
2013-3-28,58,46,35,42,38,36,100,79,50,30.11,30.04,29.98,10,10,10,12,5,,0.00,5,Rain,49
2013-3-29,60,48,37,40,35,31,93,68,35,30.22,30.17,30.11,10,10,10,15,4,21,0.00,2,,189
2013-3-30,62,48,34,43,36,32,90,64,35,30.31,30.23,30.13,10,10,10,7,4,,0.00,0,Rain,152
2013-3-31,65,50,35,39,34,31,91,59,29,30.13,30.05,29.94,10,10,10,7,3,,0.00,0,,19